sensor_id;sensor_type;location;lat;lon;timestamp;P1;durP1;ratioP1;P2;durP2;ratioP2
56041;SDS011;48756;41.374;2.066;2023-02-23T00:01:15;12.63;;;8.45;;
56041;SDS011;48756;41.374;2.066;2023-02-23T00:03:42;9.70;;;6.78;;
56041;SDS011;48756;41.374;2.066;2023-02-23T00:06:09;8.40;;;7.35;;
56041;SDS011;48756;41.374;2.066;2023-02-23T00:08:36;13.18;;;8.88;;
56041;SDS011;48756;41.374;2.066;2023-02-23T00:11:03;10.85;;;7.85;;
56041;SDS011;48756;41.374;2.066;2023-02-23T00:13:33;9.57;;;7.05;;
56041;SDS011;48756;41.374;2.066;2023-02-23T00:16:08;10.45;;;8.82;;
56041;SDS011;48756;41.374;2.066;2023-02-23T00:18:38;13.13;;;8.57;;
56041;SDS011;48756;41.374;2.066;2023-02-23T00:23:43;15.07;;;11.23;;
56041;SDS011;48756;41.374;2.066;2023-02-23T00:26:13;14.35;;;10.88;;
56041;SDS011;48756;41.374;2.066;2023-02-23T00:28:39;17.98;;;11.75;;
56041;SDS011;48756;41.374;2.066;2023-02-23T00:31:06;15.30;;;12.35;;
56041;SDS011;48756;41.374;2.066;2023-02-23T00:33:32;16.08;;;10.45;;
56041;SDS011;48756;41.374;2.066;2023-02-23T00:36:02;12.63;;;9.27;;
56041;SDS011;48756;41.374;2.066;2023-02-23T00:38:39;25.60;;;13.32;;
56041;SDS011;48756;41.374;2.066;2023-02-23T00:41:09;16.73;;;12.95;;
56041;SDS011;48756;41.374;2.066;2023-02-23T00:43:38;17.13;;;11.75;;
56041;SDS011;48756;41.374;2.066;2023-02-23T00:46:17;16.00;;;12.07;;
56041;SDS011;48756;41.374;2.066;2023-02-23T00:48:45;14.90;;;12.38;;
56041;SDS011;48756;41.374;2.066;2023-02-23T00:51:15;14.98;;;10.82;;
56041;SDS011;48756;41.374;2.066;2023-02-23T00:53:42;16.58;;;13.00;;
56041;SDS011;48756;41.374;2.066;2023-02-23T00:56:09;20.65;;;11.88;;
56041;SDS011;48756;41.374;2.066;2023-02-23T00:58:36;19.30;;;12.38;;
56041;SDS011;48756;41.374;2.066;2023-02-23T01:01:04;17.63;;;12.75;;
56041;SDS011;48756;41.374;2.066;2023-02-23T01:03:34;18.83;;;11.52;;
56041;SDS011;48756;41.374;2.066;2023-02-23T01:08:29;16.38;;;11.80;;
56041;SDS011;48756;41.374;2.066;2023-02-23T01:10:56;25.95;;;10.93;;
56041;SDS011;48756;41.374;2.066;2023-02-23T01:15:48;15.05;;;10.80;;
56041;SDS011;48756;41.374;2.066;2023-02-23T01:18:16;19.90;;;12.25;;
56041;SDS011;48756;41.374;2.066;2023-02-23T01:20:43;21.63;;;12.48;;
56041;SDS011;48756;41.374;2.066;2023-02-23T01:23:10;20.48;;;12.88;;
56041;SDS011;48756;41.374;2.066;2023-02-23T01:25:37;17.13;;;13.35;;
56041;SDS011;48756;41.374;2.066;2023-02-23T01:30:29;18.98;;;13.20;;
56041;SDS011;48756;41.374;2.066;2023-02-23T01:32:55;18.58;;;13.70;;
56041;SDS011;48756;41.374;2.066;2023-02-23T01:35:21;16.05;;;11.60;;
56041;SDS011;48756;41.374;2.066;2023-02-23T01:37:46;21.45;;;13.85;;
56041;SDS011;48756;41.374;2.066;2023-02-23T01:40:15;14.65;;;11.38;;
56041;SDS011;48756;41.374;2.066;2023-02-23T01:45:41;16.38;;;12.25;;
56041;SDS011;48756;41.374;2.066;2023-02-23T01:48:09;15.18;;;12.23;;
56041;SDS011;48756;41.374;2.066;2023-02-23T01:50:41;16.45;;;11.50;;
56041;SDS011;48756;41.374;2.066;2023-02-23T01:53:10;20.38;;;12.80;;
56041;SDS011;48756;41.374;2.066;2023-02-23T01:55:36;13.80;;;11.65;;
56041;SDS011;48756;41.374;2.066;2023-02-23T01:58:07;16.58;;;14.82;;
56041;SDS011;48756;41.374;2.066;2023-02-23T02:00:43;15.90;;;12.18;;
56041;SDS011;48756;41.374;2.066;2023-02-23T02:03:14;19.20;;;11.43;;
56041;SDS011;48756;41.374;2.066;2023-02-23T02:05:47;20.33;;;13.25;;
56041;SDS011;48756;41.374;2.066;2023-02-23T02:08:14;13.38;;;9.82;;
56041;SDS011;48756;41.374;2.066;2023-02-23T02:10:43;19.33;;;14.10;;
56041;SDS011;48756;41.374;2.066;2023-02-23T02:13:12;15.52;;;11.13;;
56041;SDS011;48756;41.374;2.066;2023-02-23T02:15:46;14.70;;;11.90;;
56041;SDS011;48756;41.374;2.066;2023-02-23T02:18:34;22.55;;;15.05;;
56041;SDS011;48756;41.374;2.066;2023-02-23T02:46:03;21.45;;;13.07;;
56041;SDS011;48756;41.374;2.066;2023-02-23T02:56:39;17.23;;;12.95;;
56041;SDS011;48756;41.374;2.066;2023-02-23T02:59:11;17.75;;;13.90;;
56041;SDS011;48756;41.374;2.066;2023-02-23T03:01:57;16.35;;;13.77;;
56041;SDS011;48756;41.374;2.066;2023-02-23T03:04:42;18.58;;;11.63;;
56041;SDS011;48756;41.374;2.066;2023-02-23T03:07:28;17.55;;;12.45;;
56041;SDS011;48756;41.374;2.066;2023-02-23T03:16:58;13.00;;;9.32;;
56041;SDS011;48756;41.374;2.066;2023-02-23T03:28:53;15.63;;;11.75;;
56041;SDS011;48756;41.374;2.066;2023-02-23T03:32:02;20.30;;;14.23;;
56041;SDS011;48756;41.374;2.066;2023-02-23T03:34:53;17.45;;;12.40;;
56041;SDS011;48756;41.374;2.066;2023-02-23T03:37:59;15.02;;;12.20;;
56041;SDS011;48756;41.374;2.066;2023-02-23T03:40:52;17.55;;;9.68;;
56041;SDS011;48756;41.374;2.066;2023-02-23T03:43:40;18.33;;;11.43;;
56041;SDS011;48756;41.374;2.066;2023-02-23T03:46:33;12.43;;;10.40;;
56041;SDS011;48756;41.374;2.066;2023-02-23T03:49:18;15.93;;;11.88;;
56041;SDS011;48756;41.374;2.066;2023-02-23T03:52:09;24.45;;;14.73;;
56041;SDS011;48756;41.374;2.066;2023-02-23T03:55:00;18.02;;;12.88;;
56041;SDS011;48756;41.374;2.066;2023-02-23T03:57:49;17.58;;;13.43;;
56041;SDS011;48756;41.374;2.066;2023-02-23T04:00:38;18.77;;;14.70;;
56041;SDS011;48756;41.374;2.066;2023-02-23T04:03:27;15.35;;;12.48;;
56041;SDS011;48756;41.374;2.066;2023-02-23T04:09:00;17.80;;;13.07;;
56041;SDS011;48756;41.374;2.066;2023-02-23T04:12:08;17.58;;;14.27;;
56041;SDS011;48756;41.374;2.066;2023-02-23T04:17:43;17.85;;;13.40;;
56041;SDS011;48756;41.374;2.066;2023-02-23T04:20:10;23.40;;;14.30;;
56041;SDS011;48756;41.374;2.066;2023-02-23T04:22:36;24.25;;;13.10;;
56041;SDS011;48756;41.374;2.066;2023-02-23T04:25:02;21.50;;;14.32;;
56041;SDS011;48756;41.374;2.066;2023-02-23T04:27:30;19.70;;;15.52;;
56041;SDS011;48756;41.374;2.066;2023-02-23T04:29:56;21.10;;;15.52;;
56041;SDS011;48756;41.374;2.066;2023-02-23T04:32:22;18.30;;;12.75;;
56041;SDS011;48756;41.374;2.066;2023-02-23T04:34:47;19.45;;;12.98;;
56041;SDS011;48756;41.374;2.066;2023-02-23T04:37:13;19.95;;;13.57;;
56041;SDS011;48756;41.374;2.066;2023-02-23T04:39:38;17.67;;;14.35;;
56041;SDS011;48756;41.374;2.066;2023-02-23T04:42:10;20.20;;;12.50;;
56041;SDS011;48756;41.374;2.066;2023-02-23T04:44:38;15.27;;;11.48;;
56041;SDS011;48756;41.374;2.066;2023-02-23T04:47:04;13.02;;;10.98;;
56041;SDS011;48756;41.374;2.066;2023-02-23T04:49:30;15.38;;;10.77;;
56041;SDS011;48756;41.374;2.066;2023-02-23T04:51:55;19.77;;;12.97;;
56041;SDS011;48756;41.374;2.066;2023-02-23T04:54:21;21.17;;;13.43;;
56041;SDS011;48756;41.374;2.066;2023-02-23T04:56:46;21.15;;;12.45;;
56041;SDS011;48756;41.374;2.066;2023-02-23T04:59:12;15.30;;;11.35;;
56041;SDS011;48756;41.374;2.066;2023-02-23T05:01:37;21.58;;;12.80;;
56041;SDS011;48756;41.374;2.066;2023-02-23T05:04:03;12.85;;;10.43;;
56041;SDS011;48756;41.374;2.066;2023-02-23T05:06:29;22.77;;;13.10;;
56041;SDS011;48756;41.374;2.066;2023-02-23T05:11:20;22.05;;;13.38;;
56041;SDS011;48756;41.374;2.066;2023-02-23T05:13:45;20.15;;;14.48;;
56041;SDS011;48756;41.374;2.066;2023-02-23T05:16:11;24.98;;;13.25;;
56041;SDS011;48756;41.374;2.066;2023-02-23T05:18:36;16.90;;;14.98;;
56041;SDS011;48756;41.374;2.066;2023-02-23T05:21:03;22.07;;;13.17;;
56041;SDS011;48756;41.374;2.066;2023-02-23T05:23:31;18.83;;;15.32;;
56041;SDS011;48756;41.374;2.066;2023-02-23T05:26:02;18.90;;;13.63;;
56041;SDS011;48756;41.374;2.066;2023-02-23T05:28:30;22.45;;;14.82;;
56041;SDS011;48756;41.374;2.066;2023-02-23T05:30:57;22.30;;;16.45;;
56041;SDS011;48756;41.374;2.066;2023-02-23T05:33:22;15.80;;;13.20;;
56041;SDS011;48756;41.374;2.066;2023-02-23T05:35:48;21.08;;;15.45;;
56041;SDS011;48756;41.374;2.066;2023-02-23T05:38:13;20.15;;;15.15;;
56041;SDS011;48756;41.374;2.066;2023-02-23T05:40:39;21.50;;;16.67;;
56041;SDS011;48756;41.374;2.066;2023-02-23T05:43:04;23.23;;;14.37;;
56041;SDS011;48756;41.374;2.066;2023-02-23T05:45:33;20.38;;;16.80;;
56041;SDS011;48756;41.374;2.066;2023-02-23T05:47:58;18.45;;;14.60;;
56041;SDS011;48756;41.374;2.066;2023-02-23T05:50:24;20.48;;;15.80;;
56041;SDS011;48756;41.374;2.066;2023-02-23T05:52:50;20.38;;;14.80;;
56041;SDS011;48756;41.374;2.066;2023-02-23T05:55:16;20.63;;;15.40;;
56041;SDS011;48756;41.374;2.066;2023-02-23T05:57:41;20.27;;;16.75;;
56041;SDS011;48756;41.374;2.066;2023-02-23T06:00:08;22.40;;;15.40;;
56041;SDS011;48756;41.374;2.066;2023-02-23T06:02:35;23.83;;;16.50;;
56041;SDS011;48756;41.374;2.066;2023-02-23T06:05:00;19.35;;;14.75;;
56041;SDS011;48756;41.374;2.066;2023-02-23T06:07:26;18.67;;;14.02;;
56041;SDS011;48756;41.374;2.066;2023-02-23T06:09:52;20.60;;;15.20;;
56041;SDS011;48756;41.374;2.066;2023-02-23T06:12:17;21.30;;;12.63;;
56041;SDS011;48756;41.374;2.066;2023-02-23T06:14:43;19.05;;;13.75;;
56041;SDS011;48756;41.374;2.066;2023-02-23T06:17:08;17.15;;;12.43;;
56041;SDS011;48756;41.374;2.066;2023-02-23T06:19:34;24.00;;;16.48;;
56041;SDS011;48756;41.374;2.066;2023-02-23T06:21:59;21.67;;;15.77;;
56041;SDS011;48756;41.374;2.066;2023-02-23T06:24:25;24.02;;;17.20;;
56041;SDS011;48756;41.374;2.066;2023-02-23T06:26:50;34.60;;;15.55;;
56041;SDS011;48756;41.374;2.066;2023-02-23T06:29:16;23.93;;;17.20;;
56041;SDS011;48756;41.374;2.066;2023-02-23T06:31:42;19.20;;;15.27;;
56041;SDS011;48756;41.374;2.066;2023-02-23T06:34:07;24.88;;;13.68;;
56041;SDS011;48756;41.374;2.066;2023-02-23T06:36:34;17.85;;;15.48;;
56041;SDS011;48756;41.374;2.066;2023-02-23T06:39:00;19.23;;;14.20;;
56041;SDS011;48756;41.374;2.066;2023-02-23T06:41:26;24.38;;;15.25;;
56041;SDS011;48756;41.374;2.066;2023-02-23T06:43:51;22.20;;;14.98;;
56041;SDS011;48756;41.374;2.066;2023-02-23T06:46:17;20.23;;;13.35;;
56041;SDS011;48756;41.374;2.066;2023-02-23T06:48:43;22.63;;;15.82;;
56041;SDS011;48756;41.374;2.066;2023-02-23T06:51:09;20.58;;;15.63;;
56041;SDS011;48756;41.374;2.066;2023-02-23T06:53:34;28.83;;;16.95;;
56041;SDS011;48756;41.374;2.066;2023-02-23T06:56:00;18.90;;;14.13;;
56041;SDS011;48756;41.374;2.066;2023-02-23T06:58:26;22.85;;;16.17;;
56041;SDS011;48756;41.374;2.066;2023-02-23T07:00:53;25.15;;;17.08;;
56041;SDS011;48756;41.374;2.066;2023-02-23T07:03:21;19.55;;;15.02;;
56041;SDS011;48756;41.374;2.066;2023-02-23T07:08:14;20.35;;;15.73;;
56041;SDS011;48756;41.374;2.066;2023-02-23T07:10:40;17.10;;;13.38;;
56041;SDS011;48756;41.374;2.066;2023-02-23T07:13:06;22.80;;;16.27;;
56041;SDS011;48756;41.374;2.066;2023-02-23T07:15:33;21.73;;;16.30;;
56041;SDS011;48756;41.374;2.066;2023-02-23T07:17:59;37.88;;;14.35;;
56041;SDS011;48756;41.374;2.066;2023-02-23T07:20:25;19.77;;;14.55;;
56041;SDS011;48756;41.374;2.066;2023-02-23T07:22:50;23.07;;;13.83;;
56041;SDS011;48756;41.374;2.066;2023-02-23T07:25:16;29.95;;;14.60;;
56041;SDS011;48756;41.374;2.066;2023-02-23T07:27:42;22.75;;;14.77;;
56041;SDS011;48756;41.374;2.066;2023-02-23T07:30:09;25.90;;;17.23;;
56041;SDS011;48756;41.374;2.066;2023-02-23T07:35:01;31.20;;;13.70;;
56041;SDS011;48756;41.374;2.066;2023-02-23T07:37:30;16.10;;;11.65;;
56041;SDS011;48756;41.374;2.066;2023-02-23T07:39:55;17.80;;;12.15;;
56041;SDS011;48756;41.374;2.066;2023-02-23T07:42:21;20.90;;;12.85;;
56041;SDS011;48756;41.374;2.066;2023-02-23T07:44:46;22.02;;;13.55;;
56041;SDS011;48756;41.374;2.066;2023-02-23T07:47:12;15.77;;;10.98;;
56041;SDS011;48756;41.374;2.066;2023-02-23T07:49:37;17.33;;;13.87;;
56041;SDS011;48756;41.374;2.066;2023-02-23T07:52:03;21.80;;;13.77;;
56041;SDS011;48756;41.374;2.066;2023-02-23T07:54:31;23.50;;;15.60;;
56041;SDS011;48756;41.374;2.066;2023-02-23T07:56:57;31.75;;;16.98;;
56041;SDS011;48756;41.374;2.066;2023-02-23T07:59:23;23.88;;;16.88;;
56041;SDS011;48756;41.374;2.066;2023-02-23T08:01:49;23.70;;;17.63;;
56041;SDS011;48756;41.374;2.066;2023-02-23T08:04:15;24.75;;;17.33;;
56041;SDS011;48756;41.374;2.066;2023-02-23T08:06:41;20.67;;;16.35;;
56041;SDS011;48756;41.374;2.066;2023-02-23T08:09:07;21.45;;;15.50;;
56041;SDS011;48756;41.374;2.066;2023-02-23T08:11:32;25.55;;;18.15;;
56041;SDS011;48756;41.374;2.066;2023-02-23T08:13:58;27.42;;;18.15;;
56041;SDS011;48756;41.374;2.066;2023-02-23T08:16:31;24.15;;;19.65;;
56041;SDS011;48756;41.374;2.066;2023-02-23T08:19:00;36.60;;;20.52;;
56041;SDS011;48756;41.374;2.066;2023-02-23T08:23:53;23.77;;;18.67;;
56041;SDS011;48756;41.374;2.066;2023-02-23T08:26:19;23.65;;;18.02;;
56041;SDS011;48756;41.374;2.066;2023-02-23T08:28:46;20.65;;;15.93;;
56041;SDS011;48756;41.374;2.066;2023-02-23T08:31:12;23.08;;;17.15;;
56041;SDS011;48756;41.374;2.066;2023-02-23T08:33:40;24.42;;;15.90;;
56041;SDS011;48756;41.374;2.066;2023-02-23T08:36:06;29.95;;;17.15;;
56041;SDS011;48756;41.374;2.066;2023-02-23T08:41:00;25.55;;;18.73;;
56041;SDS011;48756;41.374;2.066;2023-02-23T08:43:29;26.23;;;19.00;;
56041;SDS011;48756;41.374;2.066;2023-02-23T08:45:58;28.70;;;20.13;;
56041;SDS011;48756;41.374;2.066;2023-02-23T08:48:23;30.10;;;20.08;;
56041;SDS011;48756;41.374;2.066;2023-02-23T08:50:49;30.42;;;20.75;;
56041;SDS011;48756;41.374;2.066;2023-02-23T08:53:20;69.28;;;26.83;;
56041;SDS011;48756;41.374;2.066;2023-02-23T08:55:47;30.15;;;20.00;;
56041;SDS011;48756;41.374;2.066;2023-02-23T08:58:12;27.08;;;21.25;;
56041;SDS011;48756;41.374;2.066;2023-02-23T09:00:38;28.23;;;20.63;;
56041;SDS011;48756;41.374;2.066;2023-02-23T09:03:04;48.28;;;21.60;;
56041;SDS011;48756;41.374;2.066;2023-02-23T09:05:31;26.60;;;18.90;;
56041;SDS011;48756;41.374;2.066;2023-02-23T09:08:02;26.92;;;19.77;;
56041;SDS011;48756;41.374;2.066;2023-02-23T09:10:28;28.38;;;20.95;;
56041;SDS011;48756;41.374;2.066;2023-02-23T09:12:53;25.65;;;18.58;;
56041;SDS011;48756;41.374;2.066;2023-02-23T09:15:19;29.48;;;21.50;;
56041;SDS011;48756;41.374;2.066;2023-02-23T09:20:12;27.17;;;21.17;;
56041;SDS011;48756;41.374;2.066;2023-02-23T09:22:40;28.60;;;18.27;;
56041;SDS011;48756;41.374;2.066;2023-02-23T09:25:13;42.08;;;17.42;;
56041;SDS011;48756;41.374;2.066;2023-02-23T09:27:42;24.30;;;17.42;;
56041;SDS011;48756;41.374;2.066;2023-02-23T09:30:08;27.00;;;17.48;;
56041;SDS011;48756;41.374;2.066;2023-02-23T09:32:35;30.90;;;17.85;;
56041;SDS011;48756;41.374;2.066;2023-02-23T09:35:03;37.22;;;19.05;;
56041;SDS011;48756;41.374;2.066;2023-02-23T09:37:29;20.52;;;17.50;;
56041;SDS011;48756;41.374;2.066;2023-02-23T09:39:54;31.60;;;20.75;;
56041;SDS011;48756;41.374;2.066;2023-02-23T09:42:32;26.50;;;15.00;;
56041;SDS011;48756;41.374;2.066;2023-02-23T09:48:01;22.80;;;17.70;;
56041;SDS011;48756;41.374;2.066;2023-02-23T09:50:37;41.15;;;20.98;;
56041;SDS011;48756;41.374;2.066;2023-02-23T09:53:11;31.15;;;19.00;;
56041;SDS011;48756;41.374;2.066;2023-02-23T09:55:39;37.13;;;22.77;;
56041;SDS011;48756;41.374;2.066;2023-02-23T10:06:35;38.95;;;14.82;;
56041;SDS011;48756;41.374;2.066;2023-02-23T10:09:05;20.77;;;14.38;;
56041;SDS011;48756;41.374;2.066;2023-02-23T10:11:48;21.23;;;13.05;;
56041;SDS011;48756;41.374;2.066;2023-02-23T10:14:41;13.95;;;9.88;;
56041;SDS011;48756;41.374;2.066;2023-02-23T10:20:12;15.02;;;11.27;;
56041;SDS011;48756;41.374;2.066;2023-02-23T10:22:50;20.50;;;9.90;;
56041;SDS011;48756;41.374;2.066;2023-02-23T10:25:23;64.88;;;17.75;;
56041;SDS011;48756;41.374;2.066;2023-02-23T10:27:51;13.15;;;6.95;;
56041;SDS011;48756;41.374;2.066;2023-02-23T10:30:24;11.88;;;7.25;;
56041;SDS011;48756;41.374;2.066;2023-02-23T10:33:02;15.43;;;6.70;;
56041;SDS011;48756;41.374;2.066;2023-02-23T10:35:34;14.30;;;6.47;;
56041;SDS011;48756;41.374;2.066;2023-02-23T10:38:02;15.98;;;9.55;;
56041;SDS011;48756;41.374;2.066;2023-02-23T10:40:30;9.00;;;5.47;;
56041;SDS011;48756;41.374;2.066;2023-02-23T10:43:00;8.32;;;6.13;;
56041;SDS011;48756;41.374;2.066;2023-02-23T10:45:27;10.32;;;5.80;;
56041;SDS011;48756;41.374;2.066;2023-02-23T10:47:56;14.02;;;6.95;;
56041;SDS011;48756;41.374;2.066;2023-02-23T10:50:25;10.50;;;6.70;;
56041;SDS011;48756;41.374;2.066;2023-02-23T10:52:53;6.82;;;4.32;;
56041;SDS011;48756;41.374;2.066;2023-02-23T10:55:27;7.22;;;4.18;;
56041;SDS011;48756;41.374;2.066;2023-02-23T11:00:28;6.15;;;3.63;;
56041;SDS011;48756;41.374;2.066;2023-02-23T11:02:57;3.90;;;2.22;;
56041;SDS011;48756;41.374;2.066;2023-02-23T11:05:42;6.38;;;3.50;;
56041;SDS011;48756;41.374;2.066;2023-02-23T11:10:58;6.50;;;5.10;;
56041;SDS011;48756;41.374;2.066;2023-02-23T11:13:27;13.55;;;6.53;;
56041;SDS011;48756;41.374;2.066;2023-02-23T11:16:00;8.77;;;4.95;;
56041;SDS011;48756;41.374;2.066;2023-02-23T11:18:28;9.65;;;5.43;;
56041;SDS011;48756;41.374;2.066;2023-02-23T11:23:21;7.28;;;3.53;;
56041;SDS011;48756;41.374;2.066;2023-02-23T11:25:56;7.07;;;3.92;;
56041;SDS011;48756;41.374;2.066;2023-02-23T11:28:30;5.28;;;4.43;;
56041;SDS011;48756;41.374;2.066;2023-02-23T11:30:58;10.43;;;4.15;;
56041;SDS011;48756;41.374;2.066;2023-02-23T11:33:29;7.85;;;4.60;;
56041;SDS011;48756;41.374;2.066;2023-02-23T11:36:11;7.57;;;4.60;;
56041;SDS011;48756;41.374;2.066;2023-02-23T11:38:39;16.00;;;6.03;;
56041;SDS011;48756;41.374;2.066;2023-02-23T11:41:05;13.27;;;5.38;;
56041;SDS011;48756;41.374;2.066;2023-02-23T11:43:48;12.65;;;5.43;;
56041;SDS011;48756;41.374;2.066;2023-02-23T11:46:15;8.90;;;5.50;;
56041;SDS011;48756;41.374;2.066;2023-02-23T11:51:26;16.63;;;7.25;;
56041;SDS011;48756;41.374;2.066;2023-02-23T11:53:55;16.17;;;7.43;;
56041;SDS011;48756;41.374;2.066;2023-02-23T11:56:22;28.35;;;8.40;;
56041;SDS011;48756;41.374;2.066;2023-02-23T11:59:14;12.57;;;7.13;;
56041;SDS011;48756;41.374;2.066;2023-02-23T12:01:52;10.63;;;6.20;;
56041;SDS011;48756;41.374;2.066;2023-02-23T12:04:26;8.05;;;4.65;;
56041;SDS011;48756;41.374;2.066;2023-02-23T12:09:58;6.00;;;4.78;;
56041;SDS011;48756;41.374;2.066;2023-02-23T12:12:28;5.97;;;4.38;;
56041;SDS011;48756;41.374;2.066;2023-02-23T12:14:58;6.82;;;5.05;;
56041;SDS011;48756;41.374;2.066;2023-02-23T12:17:35;11.10;;;6.55;;
56041;SDS011;48756;41.374;2.066;2023-02-23T12:20:19;7.18;;;4.00;;
56041;SDS011;48756;41.374;2.066;2023-02-23T12:28:19;8.85;;;6.40;;
56041;SDS011;48756;41.374;2.066;2023-02-23T12:31:01;9.98;;;5.88;;
56041;SDS011;48756;41.374;2.066;2023-02-23T12:33:41;9.98;;;7.53;;
56041;SDS011;48756;41.374;2.066;2023-02-23T12:36:22;10.18;;;5.80;;
56041;SDS011;48756;41.374;2.066;2023-02-23T12:41:32;16.95;;;8.35;;
56041;SDS011;48756;41.374;2.066;2023-02-23T12:44:28;10.57;;;7.10;;
56041;SDS011;48756;41.374;2.066;2023-02-23T12:46:56;10.07;;;8.35;;
56041;SDS011;48756;41.374;2.066;2023-02-23T12:54:33;10.90;;;7.78;;
56041;SDS011;48756;41.374;2.066;2023-02-23T12:57:07;11.60;;;8.95;;
56041;SDS011;48756;41.374;2.066;2023-02-23T13:02:31;9.57;;;7.75;;
56041;SDS011;48756;41.374;2.066;2023-02-23T13:13:54;11.98;;;8.13;;
56041;SDS011;48756;41.374;2.066;2023-02-23T13:16:36;14.05;;;7.75;;
56041;SDS011;48756;41.374;2.066;2023-02-23T13:19:26;9.90;;;7.28;;
56041;SDS011;48756;41.374;2.066;2023-02-23T13:24:34;12.25;;;8.35;;
56041;SDS011;48756;41.374;2.066;2023-02-23T13:29:33;12.98;;;8.75;;
56041;SDS011;48756;41.374;2.066;2023-02-23T13:32:03;11.57;;;8.00;;
56041;SDS011;48756;41.374;2.066;2023-02-23T13:34:44;10.13;;;6.32;;
56041;SDS011;48756;41.374;2.066;2023-02-23T13:37:16;6.43;;;3.20;;
56041;SDS011;48756;41.374;2.066;2023-02-23T13:50:51;5.40;;;2.73;;
56041;SDS011;48756;41.374;2.066;2023-02-23T13:53:39;7.22;;;4.50;;
56041;SDS011;48756;41.374;2.066;2023-02-23T13:56:10;5.90;;;2.83;;
56041;SDS011;48756;41.374;2.066;2023-02-23T13:58:53;6.25;;;2.28;;
56041;SDS011;48756;41.374;2.066;2023-02-23T14:01:28;4.47;;;2.95;;
56041;SDS011;48756;41.374;2.066;2023-02-23T14:04:01;6.30;;;3.22;;
56041;SDS011;48756;41.374;2.066;2023-02-23T14:06:36;2.65;;;1.80;;
56041;SDS011;48756;41.374;2.066;2023-02-23T14:09:08;7.57;;;3.55;;
56041;SDS011;48756;41.374;2.066;2023-02-23T14:11:45;7.60;;;3.00;;
56041;SDS011;48756;41.374;2.066;2023-02-23T14:14:14;4.90;;;1.95;;
56041;SDS011;48756;41.374;2.066;2023-02-23T14:22:34;4.40;;;3.05;;
56041;SDS011;48756;41.374;2.066;2023-02-23T14:27:57;5.82;;;2.63;;
56041;SDS011;48756;41.374;2.066;2023-02-23T14:30:27;6.43;;;2.78;;
56041;SDS011;48756;41.374;2.066;2023-02-23T14:32:53;7.68;;;4.13;;
56041;SDS011;48756;41.374;2.066;2023-02-23T14:37:58;3.88;;;2.50;;
56041;SDS011;48756;41.374;2.066;2023-02-23T14:40:31;3.47;;;1.90;;
56041;SDS011;48756;41.374;2.066;2023-02-23T14:43:00;11.43;;;4.38;;
56041;SDS011;48756;41.374;2.066;2023-02-23T14:45:27;7.40;;;3.70;;
56041;SDS011;48756;41.374;2.066;2023-02-23T14:47:56;7.03;;;3.03;;
56041;SDS011;48756;41.374;2.066;2023-02-23T14:50:30;5.50;;;2.63;;
56041;SDS011;48756;41.374;2.066;2023-02-23T14:52:58;2.75;;;1.95;;
56041;SDS011;48756;41.374;2.066;2023-02-23T14:55:32;5.95;;;3.05;;
56041;SDS011;48756;41.374;2.066;2023-02-23T14:58:02;4.53;;;2.35;;
56041;SDS011;48756;41.374;2.066;2023-02-23T15:00:32;5.38;;;2.80;;
56041;SDS011;48756;41.374;2.066;2023-02-23T15:03:08;3.38;;;2.72;;
56041;SDS011;48756;41.374;2.066;2023-02-23T15:05:42;5.38;;;2.97;;
56041;SDS011;48756;41.374;2.066;2023-02-23T15:08:11;8.82;;;3.13;;
56041;SDS011;48756;41.374;2.066;2023-02-23T15:10:43;6.07;;;3.42;;
56041;SDS011;48756;41.374;2.066;2023-02-23T15:13:25;5.13;;;2.88;;
56041;SDS011;48756;41.374;2.066;2023-02-23T15:15:53;6.18;;;2.22;;
56041;SDS011;48756;41.374;2.066;2023-02-23T15:18:21;4.43;;;2.70;;
56041;SDS011;48756;41.374;2.066;2023-02-23T15:21:10;6.60;;;4.37;;
56041;SDS011;48756;41.374;2.066;2023-02-23T15:23:38;5.95;;;3.33;;
56041;SDS011;48756;41.374;2.066;2023-02-23T15:26:16;4.88;;;3.42;;
56041;SDS011;48756;41.374;2.066;2023-02-23T15:28:51;5.25;;;2.80;;
56041;SDS011;48756;41.374;2.066;2023-02-23T15:31:16;5.55;;;3.20;;
56041;SDS011;48756;41.374;2.066;2023-02-23T15:33:43;3.95;;;2.40;;
56041;SDS011;48756;41.374;2.066;2023-02-23T15:38:45;4.82;;;1.52;;
56041;SDS011;48756;41.374;2.066;2023-02-23T15:41:27;4.30;;;1.85;;
56041;SDS011;48756;41.374;2.066;2023-02-23T15:43:54;4.18;;;2.08;;
56041;SDS011;48756;41.374;2.066;2023-02-23T15:46:31;3.05;;;2.58;;
56041;SDS011;48756;41.374;2.066;2023-02-23T15:48:58;6.57;;;2.30;;
56041;SDS011;48756;41.374;2.066;2023-02-23T15:51:30;7.85;;;3.28;;
56041;SDS011;48756;41.374;2.066;2023-02-23T15:54:00;5.53;;;2.78;;
56041;SDS011;48756;41.374;2.066;2023-02-23T15:56:33;5.30;;;2.53;;
56041;SDS011;48756;41.374;2.066;2023-02-23T15:59:04;5.82;;;3.45;;
56041;SDS011;48756;41.374;2.066;2023-02-23T16:01:38;5.20;;;2.17;;
56041;SDS011;48756;41.374;2.066;2023-02-23T16:04:11;4.15;;;2.95;;
56041;SDS011;48756;41.374;2.066;2023-02-23T16:06:49;2.60;;;2.15;;
56041;SDS011;48756;41.374;2.066;2023-02-23T16:14:42;9.60;;;4.03;;
56041;SDS011;48756;41.374;2.066;2023-02-23T16:17:20;10.57;;;3.38;;
56041;SDS011;48756;41.374;2.066;2023-02-23T16:19:53;9.10;;;3.03;;
56041;SDS011;48756;41.374;2.066;2023-02-23T16:22:31;4.30;;;3.17;;
56041;SDS011;48756;41.374;2.066;2023-02-23T16:25:03;8.52;;;3.78;;
56041;SDS011;48756;41.374;2.066;2023-02-23T16:27:35;9.82;;;3.00;;
56041;SDS011;48756;41.374;2.066;2023-02-23T16:30:14;8.95;;;2.70;;
56041;SDS011;48756;41.374;2.066;2023-02-23T16:32:47;6.40;;;2.42;;
56041;SDS011;48756;41.374;2.066;2023-02-23T16:35:32;7.03;;;2.30;;
56041;SDS011;48756;41.374;2.066;2023-02-23T16:38:03;3.58;;;2.15;;
56041;SDS011;48756;41.374;2.066;2023-02-23T16:40:38;5.65;;;2.33;;
56041;SDS011;48756;41.374;2.066;2023-02-23T16:43:04;5.53;;;2.78;;
56041;SDS011;48756;41.374;2.066;2023-02-23T16:45:30;3.20;;;1.77;;
56041;SDS011;48756;41.374;2.066;2023-02-23T16:47:55;4.13;;;2.67;;
56041;SDS011;48756;41.374;2.066;2023-02-23T16:50:27;7.72;;;3.00;;
56041;SDS011;48756;41.374;2.066;2023-02-23T16:55:22;6.35;;;2.60;;
56041;SDS011;48756;41.374;2.066;2023-02-23T16:57:51;4.40;;;2.55;;
56041;SDS011;48756;41.374;2.066;2023-02-23T17:00:23;4.90;;;3.05;;
56041;SDS011;48756;41.374;2.066;2023-02-23T17:02:52;5.47;;;2.75;;
56041;SDS011;48756;41.374;2.066;2023-02-23T17:05:19;6.22;;;3.83;;
56041;SDS011;48756;41.374;2.066;2023-02-23T17:07:48;13.70;;;3.38;;
56041;SDS011;48756;41.374;2.066;2023-02-23T17:10:16;7.22;;;3.97;;
56041;SDS011;48756;41.374;2.066;2023-02-23T17:12:54;5.60;;;3.13;;
56041;SDS011;48756;41.374;2.066;2023-02-23T17:15:22;4.88;;;2.22;;
56041;SDS011;48756;41.374;2.066;2023-02-23T17:17:51;9.73;;;3.75;;
56041;SDS011;48756;41.374;2.066;2023-02-23T17:20:20;7.45;;;2.83;;
56041;SDS011;48756;41.374;2.066;2023-02-23T17:22:49;5.88;;;3.47;;
56041;SDS011;48756;41.374;2.066;2023-02-23T17:25:15;5.03;;;3.20;;
56041;SDS011;48756;41.374;2.066;2023-02-23T17:27:41;4.95;;;3.58;;
56041;SDS011;48756;41.374;2.066;2023-02-23T17:30:07;8.10;;;3.53;;
56041;SDS011;48756;41.374;2.066;2023-02-23T17:32:33;5.35;;;2.40;;
56041;SDS011;48756;41.374;2.066;2023-02-23T17:34:59;13.57;;;2.75;;
56041;SDS011;48756;41.374;2.066;2023-02-23T17:37:25;7.50;;;3.67;;
56041;SDS011;48756;41.374;2.066;2023-02-23T17:39:51;8.25;;;3.40;;
56041;SDS011;48756;41.374;2.066;2023-02-23T17:42:17;4.22;;;2.35;;
56041;SDS011;48756;41.374;2.066;2023-02-23T17:44:42;5.97;;;2.67;;